Time;durP1;ratioP1;P1;durP2;ratioP2;P2;SDS_P1;SDS_P2;PMS_P1;PMS_P2;Temp;Humidity;BMP_temperature;BMP_pressure;BME280_temperature;BME280_humidity;BME280_pressure;Samples;Min_cycle;Max_cycle;Signal;HPM_P1;HPM_P2
2022/11/05 00:16:42;;;;;;;8.43;6.35;;;21.90;53.80;;;;;;5057123;28;20049;-63
2022/11/05 00:16:58;;;;;;;8.57;5.72;;;21.90;53.80;;;;;;5057009;28;20048;-62
2022/11/05 00:19:25;;;;;;;6.75;6.05;;;21.90;53.80;;;;;;5056544;28;20051;-62
2022/11/05 00:27:25;;;;;;;7.57;5.90;;;21.90;53.80;;;;;;5056606;28;20585;-62
2022/11/05 00:29:52;;;;;;;10.00;6.43;;;21.90;53.80;;;;;;5057002;28;20075;-62
2022/11/05 00:32:19;;;;;;;7.50;6.10;;;21.90;53.80;;;;;;5056768;28;20049;-62
2022/11/05 00:34:46;;;;;;;7.10;5.57;;;21.90;53.80;;;;;;5056579;28;20048;-62
2022/11/05 00:37:13;;;;;;;7.10;6.28;;;21.80;53.80;;;;;;5055403;28;20045;-63
2022/11/05 00:39:41;;;;;;;7.20;6.05;;;21.90;53.80;;;;;;5055375;28;20482;-62
2022/11/05 00:45:01;;;;;;;7.10;5.28;;;21.80;53.80;;;;;;5056782;28;20056;-62
2022/11/05 00:50:17;;;;;;;6.07;5.15;;;21.80;53.70;;;;;;5055704;28;20490;-61
2022/11/05 00:52:55;;;;;;;6.32;4.95;;;21.90;53.80;;;;;;5056312;28;20059;-61
2022/11/05 00:55:25;;;;;;;7.47;6.13;;;21.90;53.80;;;;;;5056415;28;20415;-62
2022/11/05 00:57:52;;;;;;;6.63;5.05;;;21.90;53.80;;;;;;5056293;28;20053;-62
2022/11/05 01:00:20;;;;;;;7.53;5.50;;;21.80;53.80;;;;;;5056518;28;20057;-62
2022/11/05 01:02:47;;;;;;;7.68;5.88;;;21.80;53.70;;;;;;5056266;28;20056;-62
2022/11/05 01:05:14;;;;;;;7.93;5.53;;;21.80;53.70;;;;;;5038668;28;20586;-62
2022/11/05 01:07:41;;;;;;;6.57;5.45;;;21.80;53.70;;;;;;5056328;28;20045;-62
2022/11/05 01:10:08;;;;;;;6.70;5.47;;;21.80;53.80;;;;;;5056316;28;20053;-62
2022/11/05 01:12:35;;;;;;;5.63;4.72;;;21.80;53.80;;;;;;5056558;28;20045;-62
2022/11/05 01:15:03;;;;;;;5.97;5.00;;;21.80;53.70;;;;;;5056448;28;20049;-62
2022/11/05 01:17:30;;;;;;;5.32;4.82;;;21.80;53.70;;;;;;5056429;28;20045;-62
2022/11/05 01:19:57;;;;;;;6.22;4.70;;;21.80;53.80;;;;;;5054875;28;20055;-63
2022/11/05 01:22:24;;;;;;;6.85;5.07;;;21.80;53.80;;;;;;5056145;28;20617;-63
2022/11/05 01:24:51;;;;;;;8.88;5.38;;;21.80;53.80;;;;;;5056413;28;20052;-63
2022/11/05 01:27:18;;;;;;;5.22;4.72;;;21.80;53.80;;;;;;5056059;28;20049;-62
2022/11/05 01:29:45;;;;;;;7.10;5.63;;;21.80;53.80;;;;;;5056476;28;20434;-63
2022/11/05 01:32:13;;;;;;;7.38;5.63;;;21.80;53.90;;;;;;5056123;28;20060;-62
2022/11/05 01:34:40;;;;;;;8.00;5.15;;;21.70;53.90;;;;;;5056095;28;20049;-62
2022/11/05 01:37:07;;;;;;;5.43;4.90;;;21.80;53.90;;;;;;5056032;28;20491;-62
2022/11/05 01:39:34;;;;;;;6.72;4.70;;;21.80;54.00;;;;;;5056271;28;20051;-62
2022/11/05 01:42:01;;;;;;;6.68;5.13;;;21.70;53.90;;;;;;5056103;28;20059;-63
2022/11/05 01:44:53;;;;;;;5.75;4.88;;;21.80;53.90;;;;;;5055265;28;20045;-63
2022/11/05 01:47:33;;;;;;;5.68;4.88;;;21.80;53.90;;;;;;5059474;28;20051;-62
2022/11/05 01:50:05;;;;;;;6.32;4.57;;;21.80;53.80;;;;;;5059567;28;20487;-62
2022/11/05 01:52:34;;;;;;;5.50;4.35;;;21.80;53.80;;;;;;5059504;28;20052;-62
2022/11/05 01:55:03;;;;;;;5.80;4.32;;;21.80;53.80;;;;;;5059519;28;20131;-62
2022/11/05 01:57:31;;;;;;;5.18;4.20;;;21.80;53.80;;;;;;5060446;28;20441;-63
2022/11/05 01:59:59;;;;;;;6.00;4.85;;;21.80;53.80;;;;;;5059671;28;20063;-63
2022/11/05 02:02:28;;;;;;;5.80;4.68;;;21.80;53.80;;;;;;5059733;28;20406;-62
2022/11/05 02:05:04;;;;;;;6.65;4.93;;;21.80;53.70;;;;;;5059481;28;20475;-62
2022/11/05 02:07:32;;;;;;;5.25;4.07;;;21.80;53.70;;;;;;5059352;28;20049;-63
2022/11/05 02:10:09;;;;;;;6.80;4.65;;;21.80;53.70;;;;;;5059173;28;20051;-63
2022/11/05 02:12:39;;;;;;;5.18;4.00;;;21.80;53.70;;;;;;5058139;28;20407;-63
2022/11/05 02:15:09;;;;;;;5.65;4.25;;;21.80;53.70;;;;;;5059252;28;20434;-62
2022/11/05 02:18:04;;;;;;;4.65;4.20;;;21.80;53.70;;;;;;5058929;28;20487;-63
2022/11/05 02:21:11;;;;;;;5.32;4.22;;;21.80;53.70;;;;;;5059080;28;20135;-63
2022/11/05 02:24:05;;;;;;;4.97;4.07;;;21.80;53.70;;;;;;5058958;28;20446;-64
2022/11/05 02:26:55;;;;;;;5.47;4.43;;;21.80;53.70;;;;;;5057777;28;20053;-60
2022/11/05 02:29:51;;;;;;;5.00;4.05;;;21.80;53.70;;;;;;5059024;28;20415;-60
2022/11/05 02:32:36;;;;;;;4.35;3.90;;;21.70;53.70;;;;;;5058625;28;20056;-60
2022/11/05 02:35:21;;;;;;;5.47;3.80;;;21.80;53.70;;;;;;5059023;28;20052;-63
2022/11/05 02:37:57;;;;;;;6.00;4.47;;;21.80;53.70;;;;;;5058731;28;20056;-63
2022/11/05 02:40:46;;;;;;;4.57;3.97;;;21.80;53.70;;;;;;5058431;28;20060;-64
2022/11/05 02:43:44;;;;;;;4.00;3.60;;;21.70;53.60;;;;;;5058727;28;20140;-63
2022/11/05 02:46:35;;;;;;;4.20;3.45;;;21.70;53.60;;;;;;5058602;28;20051;-63
2022/11/05 02:49:31;;;;;;;5.25;4.55;;;21.80;53.70;;;;;;5058537;28;20495;-63
2022/11/05 02:52:05;;;;;;;4.25;3.78;;;21.70;53.60;;;;;;5058198;28;20049;-63
2022/11/05 02:54:42;;;;;;;5.10;4.03;;;21.70;53.60;;;;;;5058552;28;20475;-64
2022/11/05 02:57:09;;;;;;;4.95;3.85;;;21.70;53.60;;;;;;5058656;28;20051;-63
2022/11/05 02:59:36;;;;;;;3.95;3.55;;;21.70;53.60;;;;;;5058475;28;20479;-63
2022/11/05 03:02:04;;;;;;;4.03;3.28;;;21.70;53.60;;;;;;5058280;28;20495;-63
2022/11/05 03:04:32;;;;;;;3.63;3.13;;;21.70;53.60;;;;;;5058093;28;20041;-63
2022/11/05 03:07:19;;;;;;;4.82;3.47;;;21.70;53.60;;;;;;5058340;28;20048;-63
2022/11/05 03:10:17;;;;;;;4.95;3.58;;;21.70;53.60;;;;;;5056939;28;20056;-63
2022/11/05 03:13:13;;;;;;;3.72;3.35;;;21.70;53.50;;;;;;5057027;28;20059;-63
2022/11/05 03:15:58;;;;;;;3.45;3.13;;;21.70;53.60;;;;;;5057740;28;20056;-63
2022/11/05 03:18:49;;;;;;;3.25;2.95;;;21.70;53.60;;;;;;5058165;28;20105;-63
2022/11/05 03:21:22;;;;;;;4.20;3.20;;;21.70;53.50;;;;;;5056604;28;20483;-63
2022/11/05 03:23:58;;;;;;;4.22;3.42;;;21.70;53.40;;;;;;5058059;28;20040;-63
2022/11/05 03:26:40;;;;;;;3.60;3.03;;;21.70;53.50;;;;;;5057997;28;20053;-63
2022/11/05 03:29:29;;;;;;;3.45;2.80;;;21.70;53.40;;;;;;5057654;28;20053;-63
2022/11/05 03:32:01;;;;;;;3.50;2.85;;;21.70;53.40;;;;;;5057866;28;20048;-63
2022/11/05 03:34:34;;;;;;;4.68;3.50;;;21.70;53.30;;;;;;5057951;28;20480;-63
2022/11/05 03:37:02;;;;;;;3.38;3.08;;;21.70;53.30;;;;;;5057461;28;20099;-63
2022/11/05 03:39:36;;;;;;;2.88;2.65;;;21.70;53.30;;;;;;5057600;28;20501;-63
2022/11/05 03:42:06;;;;;;;3.45;3.08;;;21.70;53.20;;;;;;5057552;28;20053;-64
2022/11/05 03:44:37;;;;;;;2.97;2.72;;;21.70;53.20;;;;;;5057553;28;20056;-63
2022/11/05 03:47:14;;;;;;;3.70;3.30;;;21.70;53.10;;;;;;5057364;28;20049;-63
2022/11/05 03:49:57;;;;;;;4.50;3.20;;;21.70;53.20;;;;;;5057310;28;20049;-63
2022/11/05 03:52:28;;;;;;;3.30;2.75;;;21.70;53.20;;;;;;5057592;28;20099;-63
2022/11/05 03:54:55;;;;;;;2.72;2.53;;;21.70;53.10;;;;;;5057420;28;20057;-63
2022/11/05 03:57:35;;;;;;;3.45;2.92;;;21.70;53.10;;;;;;5057581;28;20052;-63
2022/11/05 04:00:06;;;;;;;3.23;2.67;;;21.70;53.10;;;;;;5057462;28;20053;-63
2022/11/05 04:02:33;;;;;;;2.97;2.65;;;21.70;53.10;;;;;;5055998;28;20148;-63
2022/11/05 04:05:00;;;;;;;3.88;3.10;;;21.60;53.10;;;;;;5057449;28;20410;-63
2022/11/05 04:18:36;;;;;;;2.70;2.47;;;21.60;53.00;;;;;;5057099;28;20075;-63
2022/11/05 04:24:07;;;;;;;5.05;3.40;;;21.60;53.00;;;;;;5056909;28;20053;-63
2022/11/05 04:26:40;;;;;;;3.05;2.60;;;21.60;53.00;;;;;;5056964;28;20049;-63
2022/11/05 04:31:54;;;;;;;2.95;2.47;;;21.70;53.00;;;;;;5056482;28;20049;-63
2022/11/05 04:34:21;;;;;;;2.67;2.47;;;21.60;53.00;;;;;;5056798;28;20055;-63
2022/11/05 04:36:50;;;;;;;2.80;2.50;;;21.60;53.00;;;;;;5055302;28;20052;-64
2022/11/05 04:39:18;;;;;;;3.10;2.33;;;21.60;52.90;;;;;;5039546;28;20057;-63
2022/11/05 04:41:47;;;;;;;3.10;2.80;;;21.60;53.00;;;;;;5055585;28;20049;-63
2022/11/05 04:44:15;;;;;;;3.10;2.70;;;21.60;52.90;;;;;;5055724;28;20055;-63
2022/11/05 04:46:42;;;;;;;2.53;2.25;;;21.60;52.90;;;;;;5056611;28;20057;-63
2022/11/05 04:49:09;;;;;;;2.15;1.95;;;21.60;52.90;;;;;;5056552;28;20064;-63
2022/11/05 04:51:36;;;;;;;2.53;2.20;;;21.60;52.90;;;;;;5056703;28;20094;-63
2022/11/05 04:54:03;;;;;;;2.55;2.35;;;21.60;52.90;;;;;;5056410;28;20056;-63
2022/11/05 04:56:30;;;;;;;2.58;1.92;;;21.60;52.90;;;;;;5056429;28;20053;-60
2022/11/05 04:58:57;;;;;;;2.88;2.33;;;21.60;52.90;;;;;;5055179;28;20060;-63
2022/11/05 05:01:24;;;;;;;2.13;1.92;;;21.60;53.00;;;;;;5056033;28;20059;-63
2022/11/05 05:03:53;;;;;;;2.45;2.20;;;21.60;53.00;;;;;;5056309;28;20052;-63
2022/11/05 05:06:21;;;;;;;2.35;2.15;;;21.60;53.00;;;;;;5056528;28;20049;-63
2022/11/05 05:08:49;;;;;;;2.00;1.85;;;21.60;53.00;;;;;;5056530;28;20072;-64
2022/11/05 05:11:19;;;;;;;2.33;2.00;;;21.60;53.00;;;;;;5056307;28;20053;-63
2022/11/05 05:13:46;;;;;;;2.30;1.98;;;21.60;53.00;;;;;;5054991;28;20045;-63
2022/11/05 05:16:23;;;;;;;1.75;1.65;;;21.60;53.00;;;;;;5056275;28;20044;-63
2022/11/05 05:18:51;;;;;;;2.35;2.15;;;21.60;53.00;;;;;;5055125;28;20406;-63
2022/11/05 05:24:18;;;;;;;2.70;1.85;;;21.60;52.90;;;;;;5060451;28;20061;-64
2022/11/05 05:26:48;;;;;;;2.20;2.00;;;21.60;52.90;;;;;;5059885;28;20056;-64
2022/11/05 05:29:16;;;;;;;1.90;1.80;;;21.60;52.90;;;;;;5060017;28;20045;-63
2022/11/05 05:31:43;;;;;;;1.92;1.80;;;21.60;52.90;;;;;;5060002;28;20049;-60
2022/11/05 05:34:11;;;;;;;2.13;1.92;;;21.60;52.90;;;;;;5060330;28;20045;-64
2022/11/05 05:36:39;;;;;;;1.83;1.70;;;21.60;52.80;;;;;;5058416;28;20053;-64
2022/11/05 05:39:09;;;;;;;1.67;1.58;;;21.60;52.50;;;;;;5059893;28;20049;-64
2022/11/05 05:41:36;;;;;;;1.83;1.70;;;21.60;52.30;;;;;;5059676;28;20099;-63
2022/11/05 05:44:05;;;;;;;1.73;1.55;;;21.60;52.10;;;;;;5059462;28;20053;-63
2022/11/05 05:46:32;;;;;;;1.65;1.55;;;21.60;52.00;;;;;;5059709;28;20049;-63
2022/11/05 05:48:59;;;;;;;1.45;1.35;;;21.60;51.80;;;;;;5059922;28;20475;-64
2022/11/05 05:51:26;;;;;;;1.63;1.35;;;21.60;51.70;;;;;;5058503;28;20505;-64
2022/11/05 05:53:54;;;;;;;1.50;1.40;;;21.60;51.60;;;;;;5059781;28;20053;-63
2022/11/05 05:56:21;;;;;;;1.40;1.30;;;21.50;51.60;;;;;;5059979;28;20478;-63
2022/11/05 05:58:48;;;;;;;1.92;1.70;;;21.50;51.60;;;;;;5059576;28;20061;-63
2022/11/05 06:01:16;;;;;;;1.90;1.30;;;21.50;51.60;;;;;;5059313;28;20119;-62
2022/11/05 06:03:47;;;;;;;1.73;1.63;;;21.50;51.50;;;;;;5059516;28;20049;-62
2022/11/05 06:06:18;;;;;;;1.88;1.65;;;21.50;51.40;;;;;;5059267;28;20053;-62
2022/11/05 06:08:46;;;;;;;1.50;1.40;;;21.50;51.30;;;;;;5058291;28;20450;-63
2022/11/05 06:11:13;;;;;;;1.50;1.40;;;21.50;51.20;;;;;;5058865;28;20047;-62
2022/11/05 06:13:40;;;;;;;1.27;1.10;;;21.50;51.10;;;;;;5059549;28;20052;-62
2022/11/05 06:16:09;;;;;;;2.40;1.38;;;21.50;51.00;;;;;;5058766;28;20048;-62
2022/11/05 06:18:36;;;;;;;1.30;1.17;;;21.40;50.80;;;;;;5058842;28;20057;-63
2022/11/05 06:21:07;;;;;;;1.20;1.10;;;21.40;50.70;;;;;;5059156;28;20052;-63
2022/11/05 06:23:34;;;;;;;;;;;21.40;50.60;;;;;;5059741;28;20071;-62
2022/11/05 06:26:04;;;;;;;1.27;1.17;;;21.40;50.50;;;;;;5058753;28;19921;-62
2022/11/05 06:28:32;;;;;;;1.48;1.38;;;21.40;50.50;;;;;;5059113;28;20518;-62
2022/11/05 06:31:00;;;;;;;1.60;1.30;;;21.40;50.30;;;;;;5058773;28;20049;-63
2022/11/05 06:33:28;;;;;;;1.35;1.02;;;21.40;50.30;;;;;;5059051;28;20052;-63
2022/11/05 06:35:58;;;;;;;1.25;1.15;;;21.40;50.10;;;;;;5058819;28;20505;-62
2022/11/05 06:38:25;;;;;;;1.25;1.10;;;21.40;50.10;;;;;;5058590;28;20052;-62
2022/11/05 06:40:52;;;;;;;1.00;0.90;;;21.40;50.00;;;;;;5059050;28;20049;-59
2022/11/05 06:43:19;;;;;;;1.15;1.08;;;21.40;49.90;;;;;;5058740;28;20044;-62
2022/11/05 06:45:46;;;;;;;1.98;0.80;;;21.40;49.90;;;;;;5059031;28;20487;-62
2022/11/05 06:48:13;;;;;;;1.10;0.90;;;21.40;49.80;;;;;;5057383;28;20051;-62
2022/11/05 06:50:44;;;;;;;0.85;0.85;;;21.40;49.60;;;;;;5058946;28;20403;-62
2022/11/05 06:53:11;;;;;;;;;;;21.40;49.50;;;;;;5058553;28;20041;-62
2022/11/05 06:55:39;;;;;;;0.90;0.90;;;21.40;49.50;;;;;;5058319;28;19921;-62
2022/11/05 06:58:06;;;;;;;1.15;1.05;;;21.40;49.30;;;;;;5058241;28;20041;-62
2022/11/05 07:00:33;;;;;;;1.30;1.00;;;21.40;49.20;;;;;;5058274;28;20066;-62
2022/11/05 07:03:09;;;;;;;0.82;0.73;;;21.40;49.20;;;;;;5058508;28;20053;-63
2022/11/05 07:05:40;;;;;;;1.30;1.20;;;21.40;49.10;;;;;;5058324;28;20056;-62
2022/11/05 07:08:07;;;;;;;0.90;0.90;;;21.40;49.00;;;;;;5058022;28;20060;-62
2022/11/05 07:10:34;;;;;;;0.70;0.70;;;21.40;49.00;;;;;;5058059;28;20053;-62
2022/11/05 07:13:01;;;;;;;1.35;0.93;;;21.40;48.90;;;;;;5057967;28;20053;-62
2022/11/05 07:15:35;;;;;;;1.55;1.02;;;21.40;48.80;;;;;;5058229;28;20052;-62
2022/11/05 07:18:02;;;;;;;0.82;0.82;;;21.50;48.80;;;;;;5057927;28;20095;-62
2022/11/05 07:20:30;;;;;;;1.20;1.10;;;21.50;48.70;;;;;;5058058;28;20056;-63
2022/11/05 07:23:11;;;;;;;2.50;0.82;;;21.50;48.70;;;;;;5056819;28;20087;-63
2022/11/05 07:25:41;;;;;;;0.70;0.70;;;21.50;48.60;;;;;;5057923;28;20487;-62
2022/11/05 07:28:09;;;;;;;2.40;1.02;;;21.50;48.50;;;;;;5057730;28;20045;-62
2022/11/05 07:30:37;;;;;;;1.27;1.13;;;21.60;48.40;;;;;;5057790;28;20509;-62
2022/11/05 07:33:04;;;;;;;1.75;0.70;;;21.60;48.20;;;;;;5057952;28;20079;-62
2022/11/05 07:35:31;;;;;;;0.70;0.70;;;21.60;48.10;;;;;;5057869;28;20049;-62
2022/11/05 07:37:58;;;;;;;0.85;0.85;;;21.60;48.00;;;;;;5057605;28;20053;-63
2022/11/05 07:40:27;;;;;;;0.77;0.70;;;21.70;47.90;;;;;;5057703;28;20144;-63
2022/11/05 07:42:57;;;;;;;0.50;0.50;;;21.70;47.70;;;;;;5055785;28;20048;-62
2022/11/05 07:45:26;;;;;;;0.52;0.47;;;21.70;47.60;;;;;;5057527;28;20049;-62
2022/11/05 07:47:59;;;;;;;0.43;0.43;;;21.80;47.50;;;;;;5057423;28;20049;-62
2022/11/05 07:50:30;;;;;;;0.60;0.57;;;21.80;47.30;;;;;;5057664;28;20505;-62
2022/11/05 07:53:04;;;;;;;0.90;0.85;;;21.80;47.20;;;;;;5056038;28;20483;-62
2022/11/05 07:55:31;;;;;;;0.40;0.40;;;21.80;47.00;;;;;;5057611;28;20411;-62
2022/11/05 07:57:58;;;;;;;1.00;0.70;;;21.90;46.90;;;;;;5056175;28;20056;-62
2022/11/05 08:00:26;;;;;;;1.98;0.60;;;21.90;46.80;;;;;;5057222;28;20049;-62
2022/11/05 08:03:11;;;;;;;0.60;0.60;;;21.90;46.60;;;;;;5057646;28;20052;-62
2022/11/05 08:05:43;;;;;;;0.45;0.45;;;22.00;46.50;;;;;;5056207;28;20067;-63
2022/11/05 08:08:14;;;;;;;0.68;0.40;;;22.00;46.50;;;;;;5057160;28;20049;-62
2022/11/05 08:10:41;;;;;;;0.95;0.68;;;22.00;46.30;;;;;;5057232;28;20056;-62
2022/11/05 08:13:09;;;;;;;0.82;0.60;;;22.10;46.20;;;;;;5057034;28;20048;-62
2022/11/05 08:15:37;;;;;;;0.57;0.57;;;22.10;46.10;;;;;;5056999;28;20052;-62
2022/11/05 08:18:07;;;;;;;0.63;0.63;;;22.10;46.00;;;;;;5057130;28;20052;-62
2022/11/05 08:20:34;;;;;;;0.67;0.53;;;22.10;45.90;;;;;;5056080;28;20387;-61
2022/11/05 08:23:02;;;;;;;0.57;0.57;;;22.20;45.90;;;;;;5056784;28;20075;-62
2022/11/05 08:25:29;;;;;;;0.55;0.55;;;22.20;45.90;;;;;;5055875;28;20045;-62
2022/11/05 08:28:02;;;;;;;0.60;0.60;;;22.20;45.80;;;;;;5056691;28;20048;-63
2022/11/05 08:30:29;;;;;;;0.40;0.40;;;22.20;45.70;;;;;;5055643;28;20052;-62
2022/11/05 08:32:58;;;;;;;0.70;0.50;;;22.20;45.60;;;;;;5056863;28;20483;-62
2022/11/05 08:35:27;;;;;;;0.55;0.47;;;22.30;45.50;;;;;;5055556;28;20056;-62
2022/11/05 08:38:02;;;;;;;0.68;0.50;;;22.30;45.50;;;;;;5056724;28;20048;-62
2022/11/05 08:40:31;;;;;;;0.40;0.40;;;22.30;45.40;;;;;;5056834;28;20461;-62
2022/11/05 08:42:59;;;;;;;0.52;0.52;;;22.30;45.30;;;;;;5056757;28;20059;-62
2022/11/05 08:45:27;;;;;;;0.65;0.52;;;22.30;45.20;;;;;;5056776;28;20053;-62
2022/11/05 08:48:05;;;;;;;0.55;0.55;;;22.40;45.20;;;;;;5056612;28;20049;-62
2022/11/05 08:50:32;;;;;;;1.00;0.35;;;22.40;45.10;;;;;;5056502;28;20045;-62
2022/11/05 08:53:00;;;;;;;0.90;0.85;;;22.40;45.00;;;;;;5056441;28;20049;-62
2022/11/05 08:55:27;;;;;;;1.60;0.55;;;22.40;45.00;;;;;;5060127;28;20056;-62
2022/11/05 08:57:56;;;;;;;0.88;0.85;;;22.40;44.90;;;;;;5060778;28;20045;-63
2022/11/05 09:00:24;;;;;;;0.52;0.47;;;22.40;44.70;;;;;;5059528;28;20053;-62
2022/11/05 09:02:51;;;;;;;0.73;0.57;;;22.40;44.60;;;;;;5060458;28;20045;-62
2022/11/05 09:05:19;;;;;;;0.40;0.40;;;22.50;44.60;;;;;;5043172;28;20044;-63
2022/11/05 09:07:46;;;;;;;0.70;0.43;;;22.50;44.40;;;;;;5060248;28;20487;-63
2022/11/05 09:10:13;;;;;;;0.30;0.30;;;22.50;44.40;;;;;;5060596;28;20052;-62
2022/11/05 09:12:40;;;;;;;0.57;0.57;;;22.50;44.30;;;;;;5060583;28;20060;-62
2022/11/05 09:15:08;;;;;;;0.60;0.40;;;22.50;44.20;;;;;;5059379;28;20048;-62
2022/11/05 09:17:35;;;;;;;0.55;0.55;;;22.50;44.10;;;;;;5060513;28;20057;-63
2022/11/05 09:20:03;;;;;;;0.60;0.43;;;22.50;44.10;;;;;;5060282;28;20049;-62
2022/11/05 09:22:31;;;;;;;0.40;0.25;;;22.60;44.10;;;;;;5060463;28;20486;-62
2022/11/05 09:24:58;;;;;;;0.32;0.32;;;22.50;44.00;;;;;;5060003;28;20045;-63
2022/11/05 09:27:25;;;;;;;1.20;0.88;;;22.60;44.00;;;;;;5060145;28;20406;-62
2022/11/05 09:29:52;;;;;;;1.27;0.80;;;22.60;44.00;;;;;;5059555;28;20049;-62
2022/11/05 09:32:19;;;;;;;0.95;0.50;;;22.60;43.80;;;;;;5060256;28;20057;-63
2022/11/05 09:34:47;;;;;;;0.47;0.40;;;22.60;43.80;;;;;;5060219;28;20041;-62
2022/11/05 09:37:15;;;;;;;0.30;0.30;;;22.60;43.70;;;;;;5059871;28;20056;-63
2022/11/05 09:39:42;;;;;;;0.50;0.50;;;22.60;43.70;;;;;;5060083;28;20048;-62
2022/11/05 09:42:14;;;;;;;3.92;0.30;;;22.60;43.70;;;;;;5059892;28;20045;-62
2022/11/05 09:44:58;;;;;;;0.50;0.47;;;22.60;43.50;;;;;;5059776;28;20052;-62
2022/11/05 09:47:41;;;;;;;0.40;0.40;;;22.60;43.50;;;;;;5058646;28;20045;-62
2022/11/05 09:50:16;;;;;;;0.47;0.47;;;22.60;43.50;;;;;;5058806;28;20407;-62
2022/11/05 09:52:43;;;;;;;0.47;0.47;;;22.60;43.40;;;;;;5059673;28;20045;-62
2022/11/05 09:55:24;;;;;;;0.65;0.50;;;22.60;43.40;;;;;;5059688;28;20059;-62
2022/11/05 09:57:56;;;;;;;0.47;0.30;;;22.60;43.20;;;;;;5059698;28;20443;-62
2022/11/05 10:00:23;;;;;;;0.35;0.35;;;22.60;43.20;;;;;;5058344;28;20045;-63
2022/11/05 10:02:56;;;;;;;0.68;0.35;;;22.60;43.20;;;;;;5059432;28;20049;-62
2022/11/05 10:05:25;;;;;;;0.35;0.35;;;22.60;43.10;;;;;;5058864;28;20053;-62
2022/11/05 10:08:03;;;;;;;1.00;0.70;;;22.60;43.10;;;;;;5059098;28;20487;-62
2022/11/05 10:10:42;;;;;;;0.40;0.40;;;22.60;43.00;;;;;;5059430;28;20060;-62
2022/11/05 10:13:32;;;;;;;0.32;0.30;;;22.70;43.00;;;;;;5059378;28;20506;-62
2022/11/05 10:16:06;;;;;;;0.40;0.38;;;22.60;42.90;;;;;;5058192;28;20053;-62
2022/11/05 10:18:37;;;;;;;0.70;0.57;;;22.70;43.00;;;;;;5059148;28;20414;-62
2022/11/05 10:21:05;;;;;;;2.53;0.20;;;22.60;42.90;;;;;;5059162;28;20053;-63
2022/11/05 10:23:32;;;;;;;0.77;0.40;;;22.70;42.90;;;;;;5059089;28;20045;-63
2022/11/05 10:26:08;;;;;;;1.85;0.45;;;22.70;42.90;;;;;;5058870;28;20041;-62
2022/11/05 10:28:35;;;;;;;1.58;0.52;;;22.70;42.90;;;;;;5058787;28;20059;-62
2022/11/05 10:31:06;;;;;;;0.30;0.20;;;22.70;42.90;;;;;;5059021;28;20049;-62
2022/11/05 10:33:42;;;;;;;0.20;0.20;;;22.70;42.80;;;;;;5058974;28;20041;-62
2022/11/05 10:36:24;;;;;;;0.30;0.20;;;22.70;42.70;;;;;;5058502;28;20384;-62
2022/11/05 10:38:55;;;;;;;0.30;0.30;;;22.70;42.70;;;;;;5057665;28;20048;-62
2022/11/05 10:42:02;;;;;;;1.17;0.38;;;22.70;42.60;;;;;;5058546;28;20049;-62
2022/11/05 10:44:57;;;;;;;0.38;0.38;;;22.80;42.60;;;;;;5057620;28;20049;-62
2022/11/05 10:47:49;;;;;;;0.75;0.75;;;22.80;42.50;;;;;;5058444;28;20049;-62
2022/11/05 10:50:25;;;;;;;0.40;0.40;;;22.80;42.40;;;;;;5058810;28;20057;-62
2022/11/05 10:53:13;;;;;;;0.80;0.43;;;22.90;42.40;;;;;;5057574;28;20045;-62
2022/11/05 10:55:47;;;;;;;0.47;0.47;;;22.80;42.20;;;;;;5058652;28;20048;-62
2022/11/05 10:58:27;;;;;;;1.65;0.30;;;22.80;42.20;;;;;;5058634;28;20045;-62
2022/11/05 11:01:06;;;;;;;0.50;0.50;;;22.90;42.30;;;;;;5058405;28;20067;-63
2022/11/05 11:03:42;;;;;;;0.90;0.38;;;22.90;42.20;;;;;;5058333;28;20055;-63
2022/11/05 11:06:28;;;;;;;0.40;0.40;;;22.90;42.80;;;;;;5058510;28;20041;-62
2022/11/05 11:08:57;;;;;;;1.88;0.65;;;22.90;42.10;;;;;;5058569;28;20049;-62
2022/11/05 11:11:35;;;;;;;1.25;0.35;;;22.90;42.10;;;;;;5057841;28;20053;-63
2022/11/05 11:14:21;;;;;;;0.40;0.40;;;22.90;41.90;;;;;;5058295;28;20045;-62
2022/11/05 11:16:50;;;;;;;0.50;0.50;;;22.90;41.90;;;;;;5057925;28;20060;-62
2022/11/05 11:19:25;;;;;;;2.35;0.45;;;22.90;41.90;;;;;;5057121;28;20045;-62
2022/11/05 11:22:17;;;;;;;1.58;0.55;;;22.90;41.90;;;;;;5056342;28;20487;-62
2022/11/05 11:24:47;;;;;;;1.25;0.77;;;22.90;41.80;;;;;;5057953;28;20061;-62
2022/11/05 11:27:32;;;;;;;0.90;0.50;;;22.90;41.90;;;;;;5057720;28;20056;-62
2022/11/05 11:30:04;;;;;;;0.40;0.40;;;22.90;41.90;;;;;;5058063;28;20052;-62
2022/11/05 11:32:35;;;;;;;1.02;0.60;;;22.90;41.80;;;;;;5057905;28;20049;-63
2022/11/05 11:35:04;;;;;;;0.60;0.55;;;22.90;41.90;;;;;;5057894;28;20049;-63
2022/11/05 11:37:40;;;;;;;0.32;0.32;;;22.90;42.00;;;;;;5057819;28;20513;-62
2022/11/05 11:40:19;;;;;;;1.27;0.50;;;22.90;42.00;;;;;;5057466;28;20044;-62
2022/11/05 11:42:51;;;;;;;0.63;0.52;;;22.90;41.90;;;;;;5056686;28;20060;-62
2022/11/05 11:45:35;;;;;;;1.00;0.80;;;22.80;41.90;;;;;;5057999;28;20049;-62
2022/11/05 11:48:07;;;;;;;0.60;0.50;;;22.80;41.90;;;;;;5056437;28;20415;-62
2022/11/05 11:50:40;;;;;;;0.50;0.50;;;22.80;41.90;;;;;;5057405;28;20048;-62
2022/11/05 11:53:34;;;;;;;0.75;0.50;;;22.80;42.00;;;;;;5055997;28;20056;-62
2022/11/05 11:56:17;;;;;;;0.63;0.50;;;22.80;42.00;;;;;;5057202;28;20119;-63
2022/11/05 11:58:47;;;;;;;0.98;0.55;;;22.80;42.00;;;;;;5039477;28;20053;-62
2022/11/05 12:01:54;;;;;;;0.47;0.47;;;22.80;42.00;;;;;;5056471;28;20091;-62
2022/11/05 12:04:41;;;;;;;0.57;0.57;;;22.70;42.00;;;;;;5056548;28;20048;-62
2022/11/05 12:07:39;;;;;;;0.95;0.50;;;22.80;42.00;;;;;;5057048;28;20491;-63
2022/11/05 12:10:34;;;;;;;0.43;0.43;;;22.70;42.00;;;;;;5056401;28;20059;-62
2022/11/05 12:13:29;;;;;;;0.40;0.40;;;22.70;42.00;;;;;;5057168;28;20487;-62
2022/11/05 12:16:06;;;;;;;1.95;0.73;;;22.70;42.00;;;;;;5057260;28;20400;-62
2022/11/05 12:19:11;;;;;;;0.90;0.52;;;22.70;42.00;;;;;;5057019;28;20045;-62
2022/11/05 12:21:57;;;;;;;1.55;0.70;;;22.70;42.00;;;;;;5057072;28;20053;-62
2022/11/05 12:24:50;;;;;;;0.70;0.70;;;22.70;42.00;;;;;;5056797;28;20052;-62
2022/11/05 12:27:48;;;;;;;0.45;0.45;;;22.70;42.00;;;;;;5056713;28;20049;-62
2022/11/05 12:30:19;;;;;;;0.68;0.60;;;22.70;42.10;;;;;;5056850;28;20439;-63
2022/11/05 12:33:16;;;;;;;0.52;0.32;;;22.60;42.10;;;;;;5056763;28;20533;-63
2022/11/05 12:36:14;;;;;;;1.02;0.60;;;22.60;42.20;;;;;;5056769;28;20052;-62
2022/11/05 12:39:21;;;;;;;0.88;0.60;;;22.60;42.10;;;;;;5056621;28;20049;-62
2022/11/05 12:42:01;;;;;;;0.50;0.50;;;22.50;42.10;;;;;;5056740;28;20064;-62
2022/11/05 12:44:56;;;;;;;0.70;0.70;;;22.50;42.10;;;;;;5056649;28;20052;-62
2022/11/05 12:47:45;;;;;;;0.80;0.68;;;22.60;42.10;;;;;;5056766;28;20051;-62
2022/11/05 12:50:30;;;;;;;0.60;0.60;;;22.60;42.10;;;;;;5056659;28;20136;-62
2022/11/05 12:53:34;;;;;;;0.73;0.73;;;22.50;42.10;;;;;;5056643;28;20060;-62
2022/11/05 12:56:12;;;;;;;0.90;0.55;;;22.50;42.00;;;;;;5056740;28;20049;-63
2022/11/05 12:58:44;;;;;;;1.13;0.90;;;22.50;42.10;;;;;;5056039;28;20055;-62
2022/11/05 13:01:18;;;;;;;0.73;0.60;;;22.50;42.10;;;;;;5056555;28;20045;-62
2022/11/05 13:04:00;;;;;;;1.85;0.82;;;22.50;42.10;;;;;;5056211;28;20045;-62
2022/11/05 13:06:39;;;;;;;2.28;0.77;;;22.50;42.20;;;;;;5056474;28;20056;-62
2022/11/05 13:09:18;;;;;;;1.42;0.90;;;22.50;42.30;;;;;;5056683;28;20080;-63
2022/11/05 13:11:56;;;;;;;0.93;0.85;;;22.40;42.30;;;;;;5056398;28;20052;-62
2022/11/05 13:14:46;;;;;;;1.85;0.90;;;22.40;42.30;;;;;;5056390;28;20053;-62
2022/11/05 13:17:28;;;;;;;1.15;0.70;;;22.40;42.30;;;;;;5056553;28;20056;-62
2022/11/05 13:20:12;;;;;;;1.05;0.73;;;22.40;42.30;;;;;;5056316;28;20064;-63
2022/11/05 13:22:55;;;;;;;3.25;1.08;;;22.40;42.30;;;;;;5056174;28;20128;-63
2022/11/05 13:25:25;;;;;;;0.77;0.77;;;22.40;42.40;;;;;;5056532;28;20049;-62
2022/11/05 13:28:24;;;;;;;1.15;0.60;;;22.40;42.40;;;;;;5056085;28;20049;-62
2022/11/05 13:30:56;;;;;;;0.90;0.90;;;22.40;42.40;;;;;;5056437;28;20048;-63
2022/11/05 13:33:36;;;;;;;0.80;0.80;;;22.40;42.50;;;;;;5056126;28;20049;-63
2022/11/05 13:39:41;;;;;;;1.60;0.98;;;22.30;42.40;;;;;;5056024;28;20049;-63
2022/11/05 13:42:47;;;;;;;1.20;1.10;;;22.30;42.50;;;;;;5057393;28;20045;-63
2022/11/05 13:45:53;;;;;;;0.75;0.75;;;22.30;42.40;;;;;;5059810;28;20052;-62
2022/11/05 13:48:52;;;;;;;1.13;1.02;;;22.30;42.50;;;;;;5059382;28;20048;-62
2022/11/05 13:51:37;;;;;;;0.98;0.90;;;22.30;42.50;;;;;;5059576;28;20053;-62
2022/11/05 13:54:45;;;;;;;0.75;0.75;;;22.30;42.50;;;;;;5059965;28;20091;-62
2022/11/05 13:57:30;;;;;;;1.05;0.85;;;22.30;42.50;;;;;;5059693;28;20596;-63
2022/11/05 14:00:26;;;;;;;0.93;0.90;;;22.30;42.50;;;;;;5059823;28;20049;-63
2022/11/05 14:03:04;;;;;;;2.38;1.00;;;22.30;42.50;;;;;;5058089;28;20044;-62
2022/11/05 14:05:38;;;;;;;0.50;0.50;;;22.30;42.50;;;;;;5059416;28;20048;-62
2022/11/05 14:08:14;;;;;;;2.17;1.02;;;22.30;42.60;;;;;;5059393;28;20049;-62
2022/11/05 14:10:44;;;;;;;0.90;0.70;;;22.20;42.60;;;;;;5059390;28;20053;-62
2022/11/05 14:13:35;;;;;;;0.73;0.73;;;22.20;42.60;;;;;;5059538;28;20044;-62